sensor_id;sensor_type;location;lat;lon;timestamp;P1;durP1;ratioP1;P2;durP2;ratioP2
44955;SDS011;30686;52.512;-1.188;2022-11-12T00:00:29;8.05;;;2.00;;
44955;SDS011;30686;52.512;-1.188;2022-11-12T00:02:55;4.72;;;2.00;;
44955;SDS011;30686;52.512;-1.188;2022-11-12T00:05:22;6.20;;;2.22;;
44955;SDS011;30686;52.512;-1.188;2022-11-12T00:07:48;6.07;;;2.80;;
44955;SDS011;30686;52.512;-1.188;2022-11-12T00:10:15;5.90;;;2.03;;
44955;SDS011;30686;52.512;-1.188;2022-11-12T00:12:41;6.22;;;1.77;;
44955;SDS011;30686;52.512;-1.188;2022-11-12T00:15:07;7.57;;;2.13;;
44955;SDS011;30686;52.512;-1.188;2022-11-12T00:17:34;6.68;;;1.75;;
44955;SDS011;30686;52.512;-1.188;2022-11-12T00:20:00;4.63;;;1.60;;
44955;SDS011;30686;52.512;-1.188;2022-11-12T00:22:27;9.68;;;2.40;;
44955;SDS011;30686;52.512;-1.188;2022-11-12T00:24:53;8.40;;;2.25;;
44955;SDS011;30686;52.512;-1.188;2022-11-12T00:27:19;5.78;;;1.92;;
44955;SDS011;30686;52.512;-1.188;2022-11-12T00:29:46;5.32;;;2.03;;
44955;SDS011;30686;52.512;-1.188;2022-11-12T00:32:13;3.33;;;1.60;;
44955;SDS011;30686;52.512;-1.188;2022-11-12T00:34:39;4.70;;;2.17;;
44955;SDS011;30686;52.512;-1.188;2022-11-12T00:37:05;6.15;;;2.10;;
44955;SDS011;30686;52.512;-1.188;2022-11-12T00:39:32;4.18;;;1.73;;
44955;SDS011;30686;52.512;-1.188;2022-11-12T00:41:58;6.18;;;2.78;;
44955;SDS011;30686;52.512;-1.188;2022-11-12T00:44:24;6.65;;;2.00;;
44955;SDS011;30686;52.512;-1.188;2022-11-12T00:46:51;5.90;;;2.33;;
44955;SDS011;30686;52.512;-1.188;2022-11-12T00:49:19;7.38;;;1.83;;
44955;SDS011;30686;52.512;-1.188;2022-11-12T00:51:45;5.38;;;2.13;;
44955;SDS011;30686;52.512;-1.188;2022-11-12T00:54:11;6.63;;;2.22;;
44955;SDS011;30686;52.512;-1.188;2022-11-12T00:56:37;8.13;;;2.38;;
44955;SDS011;30686;52.512;-1.188;2022-11-12T00:59:04;4.97;;;1.95;;
44955;SDS011;30686;52.512;-1.188;2022-11-12T01:01:30;6.75;;;1.65;;
44955;SDS011;30686;52.512;-1.188;2022-11-12T01:03:57;7.65;;;1.70;;
44955;SDS011;30686;52.512;-1.188;2022-11-12T01:06:23;8.18;;;2.10;;
44955;SDS011;30686;52.512;-1.188;2022-11-12T01:08:50;6.25;;;2.03;;
44955;SDS011;30686;52.512;-1.188;2022-11-12T01:11:21;4.93;;;1.88;;
44955;SDS011;30686;52.512;-1.188;2022-11-12T01:13:52;6.18;;;1.90;;
44955;SDS011;30686;52.512;-1.188;2022-11-12T01:16:20;5.30;;;1.95;;
44955;SDS011;30686;52.512;-1.188;2022-11-12T01:18:47;6.85;;;1.67;;
44955;SDS011;30686;52.512;-1.188;2022-11-12T01:21:16;3.45;;;2.17;;
44955;SDS011;30686;52.512;-1.188;2022-11-12T01:23:43;6.55;;;2.13;;
44955;SDS011;30686;52.512;-1.188;2022-11-12T01:26:11;8.52;;;2.45;;
44955;SDS011;30686;52.512;-1.188;2022-11-12T01:28:38;4.90;;;1.88;;
44955;SDS011;30686;52.512;-1.188;2022-11-12T01:31:38;3.45;;;2.15;;
44955;SDS011;30686;52.512;-1.188;2022-11-12T01:34:02;6.03;;;1.80;;
44955;SDS011;30686;52.512;-1.188;2022-11-12T01:36:30;5.30;;;1.90;;
44955;SDS011;30686;52.512;-1.188;2022-11-12T01:38:57;9.68;;;2.00;;
44955;SDS011;30686;52.512;-1.188;2022-11-12T01:41:25;5.50;;;1.92;;
44955;SDS011;30686;52.512;-1.188;2022-11-12T01:46:40;3.35;;;1.75;;
44955;SDS011;30686;52.512;-1.188;2022-11-12T01:49:09;8.02;;;2.40;;
44955;SDS011;30686;52.512;-1.188;2022-11-12T01:51:38;4.93;;;1.70;;
44955;SDS011;30686;52.512;-1.188;2022-11-12T01:54:06;5.43;;;1.70;;
44955;SDS011;30686;52.512;-1.188;2022-11-12T01:56:34;5.05;;;1.95;;
44955;SDS011;30686;52.512;-1.188;2022-11-12T01:59:06;7.28;;;2.40;;
44955;SDS011;30686;52.512;-1.188;2022-11-12T02:01:34;6.18;;;1.80;;
44955;SDS011;30686;52.512;-1.188;2022-11-12T02:04:00;4.72;;;1.95;;
44955;SDS011;30686;52.512;-1.188;2022-11-12T02:06:27;8.15;;;1.85;;
44955;SDS011;30686;52.512;-1.188;2022-11-12T02:08:53;6.43;;;2.00;;
44955;SDS011;30686;52.512;-1.188;2022-11-12T02:11:20;7.65;;;1.92;;
44955;SDS011;30686;52.512;-1.188;2022-11-12T02:13:47;8.80;;;1.88;;
44955;SDS011;30686;52.512;-1.188;2022-11-12T02:16:27;5.78;;;2.95;;
44955;SDS011;30686;52.512;-1.188;2022-11-12T02:18:55;7.35;;;1.95;;
44955;SDS011;30686;52.512;-1.188;2022-11-12T02:21:22;6.82;;;1.98;;
44955;SDS011;30686;52.512;-1.188;2022-11-12T02:26:45;7.10;;;2.42;;
44955;SDS011;30686;52.512;-1.188;2022-11-12T02:29:11;4.20;;;1.85;;
44955;SDS011;30686;52.512;-1.188;2022-11-12T02:31:38;7.80;;;2.40;;
44955;SDS011;30686;52.512;-1.188;2022-11-12T02:34:04;6.10;;;2.00;;
44955;SDS011;30686;52.512;-1.188;2022-11-12T02:36:30;10.63;;;1.92;;
44955;SDS011;30686;52.512;-1.188;2022-11-12T02:38:56;5.88;;;2.40;;
44955;SDS011;30686;52.512;-1.188;2022-11-12T02:41:23;5.53;;;1.98;;
44955;SDS011;30686;52.512;-1.188;2022-11-12T02:43:49;3.83;;;2.05;;
44955;SDS011;30686;52.512;-1.188;2022-11-12T02:46:16;5.22;;;1.95;;
44955;SDS011;30686;52.512;-1.188;2022-11-12T02:48:42;6.68;;;2.22;;
44955;SDS011;30686;52.512;-1.188;2022-11-12T02:51:09;5.28;;;2.22;;
44955;SDS011;30686;52.512;-1.188;2022-11-12T02:53:35;10.15;;;2.35;;
44955;SDS011;30686;52.512;-1.188;2022-11-12T02:56:02;6.10;;;2.03;;
44955;SDS011;30686;52.512;-1.188;2022-11-12T02:58:28;5.65;;;2.20;;
44955;SDS011;30686;52.512;-1.188;2022-11-12T03:03:42;4.93;;;1.95;;
44955;SDS011;30686;52.512;-1.188;2022-11-12T03:06:08;7.05;;;2.25;;
44955;SDS011;30686;52.512;-1.188;2022-11-12T03:08:34;5.82;;;2.20;;
44955;SDS011;30686;52.512;-1.188;2022-11-12T03:11:10;5.45;;;2.53;;
44955;SDS011;30686;52.512;-1.188;2022-11-12T03:13:37;7.68;;;2.60;;
44955;SDS011;30686;52.512;-1.188;2022-11-12T03:16:04;5.30;;;2.20;;
44955;SDS011;30686;52.512;-1.188;2022-11-12T03:18:30;6.00;;;2.40;;
44955;SDS011;30686;52.512;-1.188;2022-11-12T03:20:57;3.53;;;1.90;;
44955;SDS011;30686;52.512;-1.188;2022-11-12T03:23:24;3.85;;;1.85;;
44955;SDS011;30686;52.512;-1.188;2022-11-12T03:25:50;7.82;;;2.47;;
44955;SDS011;30686;52.512;-1.188;2022-11-12T03:28:17;5.75;;;2.40;;
44955;SDS011;30686;52.512;-1.188;2022-11-12T03:30:43;5.40;;;2.50;;
44955;SDS011;30686;52.512;-1.188;2022-11-12T03:33:10;8.27;;;2.10;;
44955;SDS011;30686;52.512;-1.188;2022-11-12T03:35:37;5.85;;;2.15;;
44955;SDS011;30686;52.512;-1.188;2022-11-12T03:38:04;4.55;;;1.95;;
44955;SDS011;30686;52.512;-1.188;2022-11-12T03:40:31;8.70;;;2.30;;
44955;SDS011;30686;52.512;-1.188;2022-11-12T03:42:57;5.05;;;2.30;;
44955;SDS011;30686;52.512;-1.188;2022-11-12T03:45:24;5.03;;;2.70;;
44955;SDS011;30686;52.512;-1.188;2022-11-12T03:47:51;7.78;;;2.58;;
44955;SDS011;30686;52.512;-1.188;2022-11-12T03:50:18;7.45;;;2.60;;
44955;SDS011;30686;52.512;-1.188;2022-11-12T03:52:46;4.78;;;1.88;;
44955;SDS011;30686;52.512;-1.188;2022-11-12T03:55:13;4.30;;;2.60;;
44955;SDS011;30686;52.512;-1.188;2022-11-12T03:57:39;8.68;;;3.05;;
44955;SDS011;30686;52.512;-1.188;2022-11-12T04:00:07;10.75;;;3.00;;
44955;SDS011;30686;52.512;-1.188;2022-11-12T04:02:33;9.38;;;2.90;;
44955;SDS011;30686;52.512;-1.188;2022-11-12T04:04:59;9.43;;;3.03;;
44955;SDS011;30686;52.512;-1.188;2022-11-12T04:07:44;10.93;;;3.33;;
44955;SDS011;30686;52.512;-1.188;2022-11-12T04:10:32;6.60;;;3.08;;
44955;SDS011;30686;52.512;-1.188;2022-11-12T04:12:58;9.48;;;3.75;;
44955;SDS011;30686;52.512;-1.188;2022-11-12T04:15:43;6.00;;;3.00;;
44955;SDS011;30686;52.512;-1.188;2022-11-12T04:18:09;10.13;;;2.80;;
44955;SDS011;30686;52.512;-1.188;2022-11-12T04:20:54;6.97;;;2.90;;
44955;SDS011;30686;52.512;-1.188;2022-11-12T04:26:04;5.30;;;2.70;;
44955;SDS011;30686;52.512;-1.188;2022-11-12T04:28:49;11.95;;;3.25;;
44955;SDS011;30686;52.512;-1.188;2022-11-12T04:31:34;4.85;;;2.67;;
44955;SDS011;30686;52.512;-1.188;2022-11-12T04:34:00;10.82;;;3.22;;
44955;SDS011;30686;52.512;-1.188;2022-11-12T04:36:46;6.03;;;2.90;;
44955;SDS011;30686;52.512;-1.188;2022-11-12T04:39:12;13.82;;;3.50;;
44955;SDS011;30686;52.512;-1.188;2022-11-12T04:41:38;16.13;;;3.42;;
44955;SDS011;30686;52.512;-1.188;2022-11-12T04:47:08;5.70;;;2.85;;
44955;SDS011;30686;52.512;-1.188;2022-11-12T04:49:34;7.30;;;2.58;;
44955;SDS011;30686;52.512;-1.188;2022-11-12T04:52:00;7.40;;;2.90;;
44955;SDS011;30686;52.512;-1.188;2022-11-12T04:54:29;6.53;;;2.60;;
44955;SDS011;30686;52.512;-1.188;2022-11-12T04:56:56;8.27;;;3.20;;
44955;SDS011;30686;52.512;-1.188;2022-11-12T04:59:22;8.02;;;3.35;;
44955;SDS011;30686;52.512;-1.188;2022-11-12T05:01:48;14.95;;;3.85;;
44955;SDS011;30686;52.512;-1.188;2022-11-12T05:04:14;8.40;;;3.15;;
44955;SDS011;30686;52.512;-1.188;2022-11-12T05:06:40;9.02;;;3.42;;
44955;SDS011;30686;52.512;-1.188;2022-11-12T05:09:16;7.63;;;3.20;;
44955;SDS011;30686;52.512;-1.188;2022-11-12T05:11:42;7.45;;;3.17;;
44955;SDS011;30686;52.512;-1.188;2022-11-12T05:14:09;6.97;;;2.83;;
44955;SDS011;30686;52.512;-1.188;2022-11-12T05:16:35;6.97;;;2.92;;
44955;SDS011;30686;52.512;-1.188;2022-11-12T05:19:01;10.63;;;3.90;;
44955;SDS011;30686;52.512;-1.188;2022-11-12T05:21:28;7.82;;;3.08;;
44955;SDS011;30686;52.512;-1.188;2022-11-12T05:26:38;9.52;;;3.22;;
44955;SDS011;30686;52.512;-1.188;2022-11-12T05:29:05;7.07;;;3.22;;
44955;SDS011;30686;52.512;-1.188;2022-11-12T05:31:31;10.73;;;3.20;;
44955;SDS011;30686;52.512;-1.188;2022-11-12T05:33:57;8.48;;;3.50;;
44955;SDS011;30686;52.512;-1.188;2022-11-12T05:36:24;6.30;;;2.90;;
44955;SDS011;30686;52.512;-1.188;2022-11-12T05:38:50;8.10;;;3.47;;
44955;SDS011;30686;52.512;-1.188;2022-11-12T05:41:16;7.95;;;3.17;;
44955;SDS011;30686;52.512;-1.188;2022-11-12T05:43:43;8.50;;;3.33;;
44955;SDS011;30686;52.512;-1.188;2022-11-12T05:46:09;7.30;;;3.58;;
44955;SDS011;30686;52.512;-1.188;2022-11-12T05:48:35;8.00;;;3.30;;
44955;SDS011;30686;52.512;-1.188;2022-11-12T05:51:02;9.82;;;3.55;;
44955;SDS011;30686;52.512;-1.188;2022-11-12T05:53:28;9.18;;;3.85;;
44955;SDS011;30686;52.512;-1.188;2022-11-12T05:55:59;8.68;;;3.67;;
44955;SDS011;30686;52.512;-1.188;2022-11-12T05:58:26;12.05;;;3.33;;
44955;SDS011;30686;52.512;-1.188;2022-11-12T06:00:52;7.53;;;3.78;;
44955;SDS011;30686;52.512;-1.188;2022-11-12T06:03:18;9.77;;;4.13;;
44955;SDS011;30686;52.512;-1.188;2022-11-12T06:05:44;9.32;;;3.83;;
44955;SDS011;30686;52.512;-1.188;2022-11-12T06:08:11;7.18;;;3.88;;
44955;SDS011;30686;52.512;-1.188;2022-11-12T06:10:37;10.23;;;4.28;;
44955;SDS011;30686;52.512;-1.188;2022-11-12T06:13:04;10.55;;;4.10;;
44955;SDS011;30686;52.512;-1.188;2022-11-12T06:15:30;10.05;;;4.53;;
44955;SDS011;30686;52.512;-1.188;2022-11-12T06:17:57;8.52;;;4.60;;
44955;SDS011;30686;52.512;-1.188;2022-11-12T06:20:23;14.90;;;4.82;;
44955;SDS011;30686;52.512;-1.188;2022-11-12T06:22:49;10.68;;;4.13;;
44955;SDS011;30686;52.512;-1.188;2022-11-12T06:25:15;8.95;;;3.72;;
44955;SDS011;30686;52.512;-1.188;2022-11-12T06:27:42;9.23;;;4.25;;
44955;SDS011;30686;52.512;-1.188;2022-11-12T06:30:09;8.95;;;4.28;;
44955;SDS011;30686;52.512;-1.188;2022-11-12T06:32:35;8.15;;;4.05;;
44955;SDS011;30686;52.512;-1.188;2022-11-12T06:35:01;10.98;;;4.60;;
44955;SDS011;30686;52.512;-1.188;2022-11-12T06:37:28;25.05;;;5.40;;
44955;SDS011;30686;52.512;-1.188;2022-11-12T06:39:54;9.45;;;3.63;;
44955;SDS011;30686;52.512;-1.188;2022-11-12T06:42:20;8.05;;;4.03;;
44955;SDS011;30686;52.512;-1.188;2022-11-12T06:44:46;12.70;;;4.32;;
44955;SDS011;30686;52.512;-1.188;2022-11-12T06:47:14;9.65;;;4.15;;
44955;SDS011;30686;52.512;-1.188;2022-11-12T06:49:40;10.40;;;4.38;;
44955;SDS011;30686;52.512;-1.188;2022-11-12T06:52:07;10.00;;;4.25;;
44955;SDS011;30686;52.512;-1.188;2022-11-12T06:54:33;11.38;;;4.30;;
44955;SDS011;30686;52.512;-1.188;2022-11-12T06:56:59;9.23;;;4.18;;
44955;SDS011;30686;52.512;-1.188;2022-11-12T06:59:25;7.93;;;3.75;;
44955;SDS011;30686;52.512;-1.188;2022-11-12T07:01:51;10.68;;;4.18;;
44955;SDS011;30686;52.512;-1.188;2022-11-12T07:04:18;9.85;;;4.28;;
44955;SDS011;30686;52.512;-1.188;2022-11-12T07:06:44;7.90;;;3.80;;
44955;SDS011;30686;52.512;-1.188;2022-11-12T07:09:10;9.18;;;3.85;;
44955;SDS011;30686;52.512;-1.188;2022-11-12T07:11:37;9.75;;;4.25;;
44955;SDS011;30686;52.512;-1.188;2022-11-12T07:14:06;8.52;;;3.95;;
44955;SDS011;30686;52.512;-1.188;2022-11-12T07:16:32;7.82;;;3.60;;
44955;SDS011;30686;52.512;-1.188;2022-11-12T07:18:59;8.05;;;3.92;;
44955;SDS011;30686;52.512;-1.188;2022-11-12T07:21:25;12.57;;;4.45;;
44955;SDS011;30686;52.512;-1.188;2022-11-12T07:23:51;10.70;;;4.28;;
44955;SDS011;30686;52.512;-1.188;2022-11-12T07:26:19;19.00;;;5.00;;
44955;SDS011;30686;52.512;-1.188;2022-11-12T07:28:46;11.65;;;5.05;;
44955;SDS011;30686;52.512;-1.188;2022-11-12T07:31:13;12.18;;;4.10;;
44955;SDS011;30686;52.512;-1.188;2022-11-12T07:33:40;12.38;;;4.72;;
44955;SDS011;30686;52.512;-1.188;2022-11-12T07:36:07;8.27;;;4.10;;
44955;SDS011;30686;52.512;-1.188;2022-11-12T07:38:35;14.95;;;4.30;;
44955;SDS011;30686;52.512;-1.188;2022-11-12T07:41:05;15.82;;;4.60;;
44955;SDS011;30686;52.512;-1.188;2022-11-12T07:43:33;9.82;;;4.32;;
44955;SDS011;30686;52.512;-1.188;2022-11-12T07:46:01;9.88;;;4.57;;
44955;SDS011;30686;52.512;-1.188;2022-11-12T07:48:28;11.38;;;5.20;;
44955;SDS011;30686;52.512;-1.188;2022-11-12T07:51:03;13.13;;;5.55;;
44955;SDS011;30686;52.512;-1.188;2022-11-12T07:53:29;15.30;;;5.25;;
44955;SDS011;30686;52.512;-1.188;2022-11-12T07:55:57;9.65;;;5.28;;
44955;SDS011;30686;52.512;-1.188;2022-11-12T07:58:24;11.10;;;5.32;;
44955;SDS011;30686;52.512;-1.188;2022-11-12T08:00:50;9.60;;;5.05;;
44955;SDS011;30686;52.512;-1.188;2022-11-12T08:03:17;9.48;;;5.00;;
44955;SDS011;30686;52.512;-1.188;2022-11-12T08:05:43;10.50;;;5.07;;
44955;SDS011;30686;52.512;-1.188;2022-11-12T08:08:09;13.75;;;5.25;;
44955;SDS011;30686;52.512;-1.188;2022-11-12T08:10:36;11.95;;;5.22;;
44955;SDS011;30686;52.512;-1.188;2022-11-12T08:13:02;14.57;;;5.28;;
44955;SDS011;30686;52.512;-1.188;2022-11-12T08:15:29;10.85;;;6.70;;
44955;SDS011;30686;52.512;-1.188;2022-11-12T08:17:55;11.02;;;5.40;;
44955;SDS011;30686;52.512;-1.188;2022-11-12T08:20:21;13.73;;;5.65;;
44955;SDS011;30686;52.512;-1.188;2022-11-12T08:22:48;14.65;;;5.75;;
44955;SDS011;30686;52.512;-1.188;2022-11-12T08:25:15;13.60;;;5.45;;
44955;SDS011;30686;52.512;-1.188;2022-11-12T08:27:41;10.95;;;5.90;;
44955;SDS011;30686;52.512;-1.188;2022-11-12T08:30:07;14.65;;;5.53;;
44955;SDS011;30686;52.512;-1.188;2022-11-12T08:32:34;11.02;;;6.20;;
44955;SDS011;30686;52.512;-1.188;2022-11-12T08:35:00;12.43;;;6.65;;
44955;SDS011;30686;52.512;-1.188;2022-11-12T08:37:26;11.20;;;6.07;;
44955;SDS011;30686;52.512;-1.188;2022-11-12T08:39:52;14.00;;;7.00;;
44955;SDS011;30686;52.512;-1.188;2022-11-12T08:42:18;11.75;;;6.20;;
44955;SDS011;30686;52.512;-1.188;2022-11-12T08:44:45;12.85;;;6.57;;
44955;SDS011;30686;52.512;-1.188;2022-11-12T08:47:11;13.18;;;6.45;;
44955;SDS011;30686;52.512;-1.188;2022-11-12T08:49:37;18.63;;;7.25;;
44955;SDS011;30686;52.512;-1.188;2022-11-12T08:52:03;17.40;;;7.43;;
44955;SDS011;30686;52.512;-1.188;2022-11-12T08:54:30;12.70;;;7.18;;
44955;SDS011;30686;52.512;-1.188;2022-11-12T08:56:56;14.30;;;7.70;;
44955;SDS011;30686;52.512;-1.188;2022-11-12T08:59:22;13.95;;;6.72;;
44955;SDS011;30686;52.512;-1.188;2022-11-12T09:01:48;13.85;;;7.45;;
44955;SDS011;30686;52.512;-1.188;2022-11-12T09:04:16;19.75;;;7.85;;
44955;SDS011;30686;52.512;-1.188;2022-11-12T09:06:42;13.50;;;6.85;;
44955;SDS011;30686;52.512;-1.188;2022-11-12T09:09:08;15.15;;;7.90;;
44955;SDS011;30686;52.512;-1.188;2022-11-12T09:11:35;14.23;;;7.60;;
44955;SDS011;30686;52.512;-1.188;2022-11-12T09:14:02;16.02;;;7.20;;
44955;SDS011;30686;52.512;-1.188;2022-11-12T09:16:28;14.07;;;7.32;;
44955;SDS011;30686;52.512;-1.188;2022-11-12T09:18:54;12.25;;;6.82;;
44955;SDS011;30686;52.512;-1.188;2022-11-12T09:21:20;15.40;;;7.22;;
44955;SDS011;30686;52.512;-1.188;2022-11-12T09:23:49;17.77;;;7.55;;
44955;SDS011;30686;52.512;-1.188;2022-11-12T09:26:15;14.90;;;6.68;;
44955;SDS011;30686;52.512;-1.188;2022-11-12T09:28:41;16.63;;;7.47;;
44955;SDS011;30686;52.512;-1.188;2022-11-12T09:31:07;16.30;;;6.80;;
44955;SDS011;30686;52.512;-1.188;2022-11-12T09:33:33;16.35;;;7.32;;
44955;SDS011;30686;52.512;-1.188;2022-11-12T09:36:00;11.65;;;5.90;;
44955;SDS011;30686;52.512;-1.188;2022-11-12T09:38:27;11.18;;;6.50;;
44955;SDS011;30686;52.512;-1.188;2022-11-12T09:40:56;12.02;;;6.05;;
44955;SDS011;30686;52.512;-1.188;2022-11-12T09:45:52;10.38;;;6.35;;
44955;SDS011;30686;52.512;-1.188;2022-11-12T09:48:21;14.60;;;6.50;;
44955;SDS011;30686;52.512;-1.188;2022-11-12T09:50:52;13.68;;;6.28;;
44955;SDS011;30686;52.512;-1.188;2022-11-12T09:53:43;17.45;;;6.55;;
44955;SDS011;30686;52.512;-1.188;2022-11-12T09:56:09;11.30;;;6.20;;
44955;SDS011;30686;52.512;-1.188;2022-11-12T09:58:36;10.18;;;5.53;;
44955;SDS011;30686;52.512;-1.188;2022-11-12T10:06:15;17.70;;;6.43;;
44955;SDS011;30686;52.512;-1.188;2022-11-12T10:08:47;15.75;;;6.75;;
44955;SDS011;30686;52.512;-1.188;2022-11-12T10:11:20;17.13;;;7.50;;
44955;SDS011;30686;52.512;-1.188;2022-11-12T10:13:53;14.10;;;6.70;;
44955;SDS011;30686;52.512;-1.188;2022-11-12T10:22:10;12.10;;;5.95;;
44955;SDS011;30686;52.512;-1.188;2022-11-12T10:24:36;18.73;;;6.93;;
44955;SDS011;30686;52.512;-1.188;2022-11-12T10:27:10;17.38;;;6.90;;
44955;SDS011;30686;52.512;-1.188;2022-11-12T10:32:12;12.55;;;6.32;;
44955;SDS011;30686;52.512;-1.188;2022-11-12T10:34:38;13.88;;;6.50;;
44955;SDS011;30686;52.512;-1.188;2022-11-12T10:39:50;11.65;;;5.97;;
44955;SDS011;30686;52.512;-1.188;2022-11-12T10:42:17;13.32;;;6.32;;
44955;SDS011;30686;52.512;-1.188;2022-11-12T10:44:43;13.73;;;6.50;;
44955;SDS011;30686;52.512;-1.188;2022-11-12T10:47:21;13.38;;;6.63;;
44955;SDS011;30686;52.512;-1.188;2022-11-12T10:52:30;8.48;;;5.30;;
44955;SDS011;30686;52.512;-1.188;2022-11-12T10:55:12;16.42;;;5.93;;
44955;SDS011;30686;52.512;-1.188;2022-11-12T10:57:40;9.73;;;5.78;;
44955;SDS011;30686;52.512;-1.188;2022-11-12T11:00:07;11.70;;;6.13;;
44955;SDS011;30686;52.512;-1.188;2022-11-12T11:02:34;15.43;;;5.93;;
44955;SDS011;30686;52.512;-1.188;2022-11-12T11:05:18;13.93;;;5.75;;
44955;SDS011;30686;52.512;-1.188;2022-11-12T11:10:21;11.98;;;6.75;;
44955;SDS011;30686;52.512;-1.188;2022-11-12T11:12:48;9.82;;;5.60;;
44955;SDS011;30686;52.512;-1.188;2022-11-12T11:15:32;9.25;;;5.90;;
44955;SDS011;30686;52.512;-1.188;2022-11-12T11:17:58;9.15;;;5.55;;
44955;SDS011;30686;52.512;-1.188;2022-11-12T11:20:26;10.65;;;5.80;;
44955;SDS011;30686;52.512;-1.188;2022-11-12T11:25:27;12.20;;;5.72;;
44955;SDS011;30686;52.512;-1.188;2022-11-12T11:30:20;11.50;;;6.30;;
44955;SDS011;30686;52.512;-1.188;2022-11-12T11:40:51;9.50;;;5.30;;
44955;SDS011;30686;52.512;-1.188;2022-11-12T11:43:25;12.57;;;6.10;;
44955;SDS011;30686;52.512;-1.188;2022-11-12T11:56:28;10.98;;;4.93;;
44955;SDS011;30686;52.512;-1.188;2022-11-12T11:59:04;22.83;;;5.78;;
44955;SDS011;30686;52.512;-1.188;2022-11-12T12:22:25;7.10;;;3.92;;
44955;SDS011;30686;52.512;-1.188;2022-11-12T12:24:56;8.70;;;4.25;;
44955;SDS011;30686;52.512;-1.188;2022-11-12T12:27:25;9.90;;;4.10;;
44955;SDS011;30686;52.512;-1.188;2022-11-12T12:29:57;8.02;;;4.30;;
44955;SDS011;30686;52.512;-1.188;2022-11-12T12:32:31;8.40;;;3.92;;
44955;SDS011;30686;52.512;-1.188;2022-11-12T12:35:02;9.55;;;3.95;;
44955;SDS011;30686;52.512;-1.188;2022-11-12T12:37:34;6.07;;;3.47;;
44955;SDS011;30686;52.512;-1.188;2022-11-12T12:40:16;7.82;;;3.63;;
44955;SDS011;30686;52.512;-1.188;2022-11-12T12:42:45;12.43;;;3.53;;
44955;SDS011;30686;52.512;-1.188;2022-11-12T12:47:49;9.70;;;3.42;;
44955;SDS011;30686;52.512;-1.188;2022-11-12T12:50:17;6.82;;;3.80;;
44955;SDS011;30686;52.512;-1.188;2022-11-12T12:55:34;10.00;;;3.60;;
44955;SDS011;30686;52.512;-1.188;2022-11-12T12:58:00;10.85;;;3.90;;
44955;SDS011;30686;52.512;-1.188;2022-11-12T13:02:58;10.32;;;3.53;;
44955;SDS011;30686;52.512;-1.188;2022-11-12T13:05:26;6.50;;;3.15;;
44955;SDS011;30686;52.512;-1.188;2022-11-12T13:07:53;5.50;;;3.15;;
44955;SDS011;30686;52.512;-1.188;2022-11-12T13:15:42;8.75;;;3.55;;
44955;SDS011;30686;52.512;-1.188;2022-11-12T13:18:09;7.63;;;3.13;;
44955;SDS011;30686;52.512;-1.188;2022-11-12T13:20:36;7.78;;;3.70;;
44955;SDS011;30686;52.512;-1.188;2022-11-12T13:23:04;10.73;;;3.60;;
44955;SDS011;30686;52.512;-1.188;2022-11-12T13:25:33;7.10;;;3.70;;
44955;SDS011;30686;52.512;-1.188;2022-11-12T13:28:06;10.43;;;4.10;;
44955;SDS011;30686;52.512;-1.188;2022-11-12T13:33:00;8.38;;;3.50;;
44955;SDS011;30686;52.512;-1.188;2022-11-12T13:35:28;8.57;;;3.03;;
44955;SDS011;30686;52.512;-1.188;2022-11-12T13:46:23;6.10;;;3.60;;
44955;SDS011;30686;52.512;-1.188;2022-11-12T13:53:49;10.00;;;3.67;;
44955;SDS011;30686;52.512;-1.188;2022-11-12T13:56:32;8.05;;;3.78;;
44955;SDS011;30686;52.512;-1.188;2022-11-12T13:59:12;11.00;;;4.95;;
44955;SDS011;30686;52.512;-1.188;2022-11-12T14:01:39;10.68;;;4.25;;
44955;SDS011;30686;52.512;-1.188;2022-11-12T14:04:05;8.93;;;5.05;;
44955;SDS011;30686;52.512;-1.188;2022-11-12T14:11:51;11.38;;;4.72;;
44955;SDS011;30686;52.512;-1.188;2022-11-12T14:14:34;12.50;;;4.82;;
44955;SDS011;30686;52.512;-1.188;2022-11-12T14:17:14;8.55;;;4.55;;
44955;SDS011;30686;52.512;-1.188;2022-11-12T14:22:20;7.72;;;4.03;;
44955;SDS011;30686;52.512;-1.188;2022-11-12T14:24:48;11.68;;;4.32;;
44955;SDS011;30686;52.512;-1.188;2022-11-12T14:30:09;11.93;;;4.38;;
44955;SDS011;30686;52.512;-1.188;2022-11-12T14:32:36;6.13;;;3.88;;
44955;SDS011;30686;52.512;-1.188;2022-11-12T14:35:15;10.57;;;4.20;;
44955;SDS011;30686;52.512;-1.188;2022-11-12T14:37:42;7.95;;;3.75;;
44955;SDS011;30686;52.512;-1.188;2022-11-12T14:40:14;7.68;;;3.85;;
44955;SDS011;30686;52.512;-1.188;2022-11-12T14:42:40;8.57;;;4.43;;
44955;SDS011;30686;52.512;-1.188;2022-11-12T14:45:13;9.00;;;4.50;;
44955;SDS011;30686;52.512;-1.188;2022-11-12T14:47:40;8.52;;;4.50;;
44955;SDS011;30686;52.512;-1.188;2022-11-12T14:50:07;9.18;;;3.78;;
44955;SDS011;30686;52.512;-1.188;2022-11-12T14:52:38;7.65;;;4.28;;
44955;SDS011;30686;52.512;-1.188;2022-11-12T14:55:10;8.20;;;4.13;;
44955;SDS011;30686;52.512;-1.188;2022-11-12T14:57:38;9.63;;;4.40;;
44955;SDS011;30686;52.512;-1.188;2022-11-12T15:03:09;10.10;;;4.63;;
44955;SDS011;30686;52.512;-1.188;2022-11-12T15:05:51;7.85;;;4.22;;
44955;SDS011;30686;52.512;-1.188;2022-11-12T15:08:26;6.15;;;3.38;;
44955;SDS011;30686;52.512;-1.188;2022-11-12T15:10:53;6.95;;;3.85;;
44955;SDS011;30686;52.512;-1.188;2022-11-12T15:13:20;8.57;;;4.40;;
44955;SDS011;30686;52.512;-1.188;2022-11-12T15:15:54;7.13;;;3.78;;
44955;SDS011;30686;52.512;-1.188;2022-11-12T15:18:25;7.90;;;4.03;;
44955;SDS011;30686;52.512;-1.188;2022-11-12T15:23:46;7.75;;;4.75;;
44955;SDS011;30686;52.512;-1.188;2022-11-12T15:26:15;10.70;;;3.88;;
44955;SDS011;30686;52.512;-1.188;2022-11-12T15:29:31;11.20;;;4.95;;
44955;SDS011;30686;52.512;-1.188;2022-11-12T15:31:43;11.75;;;4.70;;
44955;SDS011;30686;52.512;-1.188;2022-11-12T15:36:59;10.50;;;5.10;;
44955;SDS011;30686;52.512;-1.188;2022-11-12T15:39:26;10.35;;;5.47;;
44955;SDS011;30686;52.512;-1.188;2022-11-12T15:41:57;9.23;;;4.25;;
44955;SDS011;30686;52.512;-1.188;2022-11-12T15:44:24;12.15;;;5.60;;
44955;SDS011;30686;52.512;-1.188;2022-11-12T15:46:51;11.98;;;4.53;;
44955;SDS011;30686;52.512;-1.188;2022-11-12T15:49:17;8.23;;;4.57;;
44955;SDS011;30686;52.512;-1.188;2022-11-12T15:51:44;8.77;;;4.75;;
44955;SDS011;30686;52.512;-1.188;2022-11-12T15:54:10;9.52;;;5.00;;
44955;SDS011;30686;52.512;-1.188;2022-11-12T15:56:37;9.77;;;4.78;;
44955;SDS011;30686;52.512;-1.188;2022-11-12T15:59:03;16.20;;;5.43;;
44955;SDS011;30686;52.512;-1.188;2022-11-12T16:01:29;13.13;;;5.55;;
44955;SDS011;30686;52.512;-1.188;2022-11-12T16:03:56;9.82;;;4.88;;
44955;SDS011;30686;52.512;-1.188;2022-11-12T16:06:22;15.55;;;5.18;;
44955;SDS011;30686;52.512;-1.188;2022-11-12T16:08:49;10.13;;;4.85;;
44955;SDS011;30686;52.512;-1.188;2022-11-12T16:11:15;9.82;;;4.40;;
44955;SDS011;30686;52.512;-1.188;2022-11-12T16:14:00;9.35;;;4.90;;
44955;SDS011;30686;52.512;-1.188;2022-11-12T16:16:26;11.80;;;4.70;;
44955;SDS011;30686;52.512;-1.188;2022-11-12T16:18:52;9.07;;;3.83;;
44955;SDS011;30686;52.512;-1.188;2022-11-12T16:21:19;12.23;;;5.03;;
44955;SDS011;30686;52.512;-1.188;2022-11-12T16:23:45;9.63;;;5.45;;
44955;SDS011;30686;52.512;-1.188;2022-11-12T16:26:12;11.48;;;6.70;;
44955;SDS011;30686;52.512;-1.188;2022-11-12T16:28:40;9.00;;;5.63;;
44955;SDS011;30686;52.512;-1.188;2022-11-12T16:31:08;11.13;;;6.20;;
44955;SDS011;30686;52.512;-1.188;2022-11-12T16:33:34;9.93;;;5.78;;
44955;SDS011;30686;52.512;-1.188;2022-11-12T16:36:00;10.32;;;5.63;;
44955;SDS011;30686;52.512;-1.188;2022-11-12T16:38:27;11.68;;;6.82;;
44955;SDS011;30686;52.512;-1.188;2022-11-12T16:40:53;10.07;;;6.18;;
44955;SDS011;30686;52.512;-1.188;2022-11-12T16:43:19;11.38;;;6.40;;
44955;SDS011;30686;52.512;-1.188;2022-11-12T16:45:46;11.30;;;5.78;;
44955;SDS011;30686;52.512;-1.188;2022-11-12T16:48:15;12.68;;;6.07;;